createdAt,value
2023-04-10T00:00:13.367Z,2.27
2023-04-10T00:03:08.843Z,2.25
2023-04-10T00:05:57.379Z,2.23
2023-04-10T00:08:43.697Z,2.21
2023-04-10T00:11:30.416Z,2.18
2023-04-10T00:14:22.944Z,2.15
2023-04-10T00:17:08.904Z,2.14
2023-04-10T00:19:55.048Z,2.07
2023-04-10T00:22:44.507Z,2.03
2023-04-10T00:25:30.452Z,2.04
2023-04-10T00:28:17.250Z,2.00
2023-04-10T00:31:03.073Z,1.97
2023-04-10T00:33:48.777Z,1.95
2023-04-10T00:36:34.669Z,1.94
2023-04-10T00:39:21.844Z,1.91
2023-04-10T00:42:09.306Z,1.88
2023-04-10T00:44:55.476Z,1.88
2023-04-10T00:47:41.868Z,1.86
2023-04-10T00:50:27.616Z,1.84
2023-04-10T00:53:13.307Z,1.84
2023-04-10T00:56:00.482Z,1.83
2023-04-10T00:58:46.609Z,1.81
2023-04-10T01:01:32.509Z,1.78
2023-04-10T01:04:18.341Z,1.78
2023-04-10T01:07:05.494Z,1.76
2023-04-10T01:09:54.465Z,1.75
2023-04-10T01:12:48.277Z,1.75
2023-04-10T01:15:34.971Z,1.75
2023-04-10T01:18:23.880Z,1.73
2023-04-10T01:21:09.857Z,1.70
2023-04-10T01:24:02.766Z,1.69
2023-04-10T01:26:54.343Z,1.68
2023-04-10T01:29:44.525Z,1.65
2023-04-10T01:32:31.308Z,1.60
2023-04-10T01:35:17.245Z,1.59
2023-04-10T01:38:03.157Z,1.59
2023-04-10T01:40:50.372Z,1.56
2023-04-10T01:43:43.999Z,1.58
2023-04-10T01:46:32.220Z,1.59
2023-04-10T01:49:18.415Z,1.53
2023-04-10T01:52:04.858Z,1.50
2023-04-10T01:54:51.099Z,1.48
2023-04-10T01:57:43.924Z,1.50
2023-04-10T02:00:29.795Z,1.50
2023-04-10T02:03:17.097Z,1.47
2023-04-10T02:06:07.106Z,1.42
2023-04-10T02:08:54.640Z,1.40
2023-04-10T02:11:42.476Z,1.40
2023-04-10T02:14:29.374Z,1.37
2023-04-10T02:17:15.647Z,1.39
2023-04-10T02:20:03.103Z,1.41
2023-04-10T02:22:49.076Z,1.38
2023-04-10T02:25:35.581Z,1.45
2023-04-10T02:28:21.493Z,1.42
2023-04-10T02:31:07.550Z,1.43
2023-04-10T02:33:53.609Z,1.41
2023-04-10T02:36:41.134Z,1.39
2023-04-10T02:39:28.677Z,1.47
2023-04-10T02:42:16.150Z,1.45
2023-04-10T02:45:02.374Z,1.46
2023-04-10T02:47:54.100Z,1.47
2023-04-10T02:50:40.977Z,1.43
2023-04-10T02:53:28.444Z,1.43
2023-04-10T02:56:18.538Z,1.62
2023-04-10T02:59:04.706Z,1.58
2023-04-10T03:01:52.103Z,1.58
2023-04-10T03:04:39.726Z,1.62
2023-04-10T03:07:27.048Z,1.73
2023-04-10T03:10:14.138Z,1.79
2023-04-10T03:13:00.514Z,1.92
2023-04-10T03:15:46.201Z,1.87
2023-04-10T03:18:34.108Z,2.26
2023-04-10T03:21:20.318Z,2.58
2023-04-10T03:24:08.081Z,2.68
2023-04-10T03:26:56.830Z,3.23
2023-04-10T03:29:43.894Z,3.31
2023-04-10T03:32:31.095Z,3.40
2023-04-10T03:35:16.941Z,3.50
2023-04-10T03:38:02.758Z,3.73
2023-04-10T03:40:48.564Z,3.82
2023-04-10T03:43:36.737Z,3.94
2023-04-10T03:46:23.485Z,4.12
2023-04-10T03:49:10.456Z,4.13
2023-04-10T03:51:57.018Z,4.21
2023-04-10T03:54:42.938Z,4.19
2023-04-10T03:57:41.505Z,4.27
2023-04-10T04:00:28.761Z,4.31
2023-04-10T04:03:22.904Z,4.28
2023-04-10T04:06:18.209Z,4.27
2023-04-10T04:09:26.639Z,4.38
2023-04-10T04:12:35.598Z,4.52
2023-04-10T04:15:26.582Z,4.51
2023-04-10T04:18:19.234Z,4.54
2023-04-10T04:21:09.493Z,4.65
2023-04-10T04:24:17.868Z,4.68
2023-04-10T04:27:14.248Z,4.71
2023-04-10T04:30:20.374Z,4.75
2023-04-10T04:33:24.089Z,4.76
2023-04-10T04:36:17.614Z,4.78
2023-04-10T04:39:18.460Z,4.82
2023-04-10T04:42:26.592Z,4.83
2023-04-10T04:45:31.381Z,4.92
2023-04-10T04:48:29.090Z,4.92
2023-04-10T04:51:23.403Z,4.93
2023-04-10T04:54:22.276Z,4.99
2023-04-10T04:57:26.973Z,5.08
2023-04-10T05:00:31.748Z,5.13
2023-04-10T05:03:29.362Z,5.18
2023-04-10T05:06:33.081Z,5.21
2023-04-10T05:09:32.928Z,5.26
2023-04-10T05:12:31.107Z,5.28
2023-04-10T05:15:22.114Z,5.33
2023-04-10T05:18:26.839Z,5.37
2023-04-10T05:21:31.768Z,5.45
2023-04-10T05:24:21.527Z,5.46
2023-04-10T05:27:27.312Z,5.49
2023-04-10T05:30:25.825Z,5.56
2023-04-10T05:33:34.221Z,5.63
2023-04-10T05:36:31.671Z,5.71
2023-04-10T05:39:25.419Z,5.76
2023-04-10T05:42:37.057Z,5.85
2023-04-10T05:45:44.575Z,5.97
2023-04-10T05:48:59.735Z,6.06
2023-04-10T05:52:08.052Z,6.16
2023-04-10T05:55:12.759Z,6.26
2023-04-10T05:58:02.085Z,6.33
2023-04-10T06:00:56.819Z,6.41
2023-04-10T06:03:55.133Z,6.52
2023-04-10T06:06:41.944Z,6.60
2023-04-10T06:09:30.773Z,6.70
2023-04-10T06:12:17.163Z,6.84
2023-04-10T06:15:03.110Z,6.93
2023-04-10T06:17:53.919Z,7.05
2023-04-10T06:20:40.066Z,7.15
2023-04-10T06:23:26.555Z,7.22
2023-04-10T06:26:14.550Z,7.29
2023-04-10T06:29:00.655Z,7.38
2023-04-10T06:31:46.680Z,7.51
2023-04-10T06:34:32.948Z,7.61
2023-04-10T06:37:27.845Z,7.71
2023-04-10T06:40:14.413Z,7.85
2023-04-10T06:43:02.150Z,7.98
2023-04-10T06:45:54.494Z,8.11
2023-04-10T06:48:40.329Z,8.29
2023-04-10T06:51:26.040Z,8.42
2023-04-10T06:54:11.952Z,8.57
2023-04-10T06:56:58.947Z,8.71
2023-04-10T06:59:46.468Z,8.86
2023-04-10T07:02:32.236Z,8.98
2023-04-10T07:05:18.512Z,9.15
2023-04-10T07:08:04.525Z,9.31
2023-04-10T07:10:50.312Z,9.46
2023-04-10T07:13:38.749Z,9.64
2023-04-10T07:16:26.441Z,9.72
2023-04-10T07:19:12.203Z,9.82
2023-04-10T07:21:58.171Z,9.97
2023-04-10T07:24:44.113Z,10.03
2023-04-10T07:27:30.211Z,10.19
2023-04-10T07:30:16.351Z,10.31
2023-04-10T07:33:03.905Z,10.43
2023-04-10T07:35:50.111Z,10.56
2023-04-10T07:38:36.419Z,10.75
2023-04-10T07:41:22.246Z,10.93
2023-04-10T07:44:08.347Z,11.04
2023-04-10T07:46:54.092Z,11.26
2023-04-10T07:49:41.228Z,11.44
2023-04-10T07:52:27.115Z,11.60
2023-04-10T07:55:13.272Z,11.69
2023-04-10T07:57:59.276Z,11.87
2023-04-10T08:00:45.714Z,12.18
2023-04-10T08:03:31.812Z,12.22
2023-04-10T08:06:19.400Z,12.40
2023-04-10T08:09:05.158Z,12.71
2023-04-10T08:11:51.078Z,12.81
2023-04-10T08:14:37.215Z,13.15
2023-04-10T08:17:22.919Z,13.40
2023-04-10T08:20:09.814Z,13.42
2023-04-10T08:23:03.113Z,13.44
2023-04-10T08:25:52.174Z,13.82
2023-04-10T08:28:38.121Z,13.89
2023-04-10T08:31:24.526Z,13.95
2023-04-10T08:34:10.849Z,14.30
2023-04-10T08:36:56.595Z,14.35
2023-04-10T08:39:43.660Z,14.15
2023-04-10T08:42:29.473Z,14.52
2023-04-10T08:45:15.289Z,14.46
2023-04-10T08:48:01.339Z,14.94
2023-04-10T08:50:47.441Z,15.24
2023-04-10T08:53:33.206Z,15.53
2023-04-10T08:56:20.568Z,15.65
2023-04-10T08:59:06.743Z,15.89
2023-04-10T09:01:53.403Z,15.89
2023-04-10T09:04:39.545Z,16.43
2023-04-10T09:07:25.815Z,16.42
2023-04-10T09:10:11.514Z,16.56
2023-04-10T09:12:59.498Z,17.00
2023-04-10T09:15:58.139Z,17.25
2023-04-10T09:18:44.730Z,17.23
2023-04-10T09:21:31.271Z,17.39
2023-04-10T09:24:17.130Z,17.41
2023-04-10T09:27:03.151Z,17.37
2023-04-10T09:29:51.695Z,17.62
2023-04-10T09:32:38.236Z,17.69
2023-04-10T09:35:24.235Z,17.45
2023-04-10T09:38:17.116Z,17.36
2023-04-10T09:41:07.615Z,17.50
2023-04-10T09:43:56.275Z,17.97
2023-04-10T09:46:43.915Z,17.92
2023-04-10T09:49:29.697Z,17.66
2023-04-10T09:52:19.277Z,18.08
2023-04-10T09:55:05.993Z,17.98
2023-04-10T09:57:51.746Z,17.97
2023-04-10T10:00:40.254Z,17.98
2023-04-10T10:03:27.693Z,18.31
2023-04-10T10:06:13.895Z,18.15
2023-04-10T10:09:01.562Z,17.68
2023-04-10T10:11:47.378Z,17.41
2023-04-10T10:14:33.104Z,17.75
2023-04-10T10:17:19.548Z,17.45
2023-04-10T10:20:08.325Z,17.46
2023-04-10T10:22:54.134Z,17.70
2023-04-10T10:25:40.273Z,18.00
2023-04-10T10:28:26.601Z,18.36
2023-04-10T10:31:12.685Z,18.42
2023-04-10T10:33:59.076Z,18.51
2023-04-10T10:36:46.293Z,18.18
2023-04-10T10:39:33.968Z,18.31
2023-04-10T10:42:21.626Z,17.89
2023-04-10T10:45:09.288Z,18.05
2023-04-10T10:47:55.482Z,18.17
2023-04-10T10:50:56.171Z,18.22
2023-04-10T10:53:44.309Z,18.29
2023-04-10T10:56:37.182Z,18.31
2023-04-10T10:59:38.086Z,18.03
2023-04-10T11:02:24.193Z,18.18
2023-04-10T11:05:10.217Z,18.38
2023-04-10T11:08:08.840Z,18.42
2023-04-10T11:11:02.383Z,18.39
2023-04-10T11:14:07.356Z,18.59
2023-04-10T11:16:53.158Z,18.48
2023-04-10T11:19:57.982Z,18.53
2023-04-10T11:23:02.834Z,19.05
2023-04-10T11:25:50.261Z,19.10
2023-04-10T11:28:38.278Z,18.71
2023-04-10T11:31:24.507Z,18.64
2023-04-10T11:34:11.413Z,18.50
2023-04-10T11:36:59.268Z,18.26
2023-04-10T11:39:45.476Z,18.43
2023-04-10T11:42:31.298Z,18.95
2023-04-10T11:45:25.344Z,18.98
2023-04-10T11:48:11.780Z,18.83
2023-04-10T11:50:58.044Z,18.79
2023-04-10T11:53:43.796Z,19.01
2023-04-10T11:56:29.976Z,19.05
2023-04-10T11:59:19.571Z,18.50
2023-04-10T12:02:09.231Z,18.60
2023-04-10T12:04:58.473Z,18.67
2023-04-10T12:07:44.065Z,18.70
2023-04-10T12:10:30.791Z,18.64
2023-04-10T12:13:25.188Z,18.48
2023-04-10T12:16:11.718Z,18.81
2023-04-10T12:18:59.027Z,18.77
2023-04-10T12:21:47.088Z,18.59
2023-04-10T12:24:42.541Z,18.41
2023-04-10T12:27:29.189Z,18.06
2023-04-10T12:30:15.283Z,18.21
2023-04-10T12:33:05.755Z,18.26
2023-04-10T12:35:54.166Z,18.24
2023-04-10T12:38:40.784Z,18.19
2023-04-10T12:41:27.688Z,18.11
2023-04-10T12:44:14.096Z,17.89
2023-04-10T12:47:01.178Z,17.82
2023-04-10T12:50:06.412Z,17.70
2023-04-10T12:53:03.733Z,17.70
2023-04-10T12:56:00.181Z,17.70
2023-04-10T12:58:46.209Z,17.63
2023-04-10T13:01:32.205Z,17.46
2023-04-10T13:04:18.575Z,17.40
2023-04-10T13:07:04.698Z,17.50
2023-04-10T13:09:52.284Z,17.57
2023-04-10T13:12:38.925Z,17.58
2023-04-10T13:15:25.613Z,17.70
2023-04-10T13:18:12.039Z,17.78
2023-04-10T13:20:58.287Z,17.99
2023-04-10T13:23:44.435Z,17.92
2023-04-10T13:26:32.008Z,18.11
2023-04-10T13:29:17.846Z,17.95
2023-04-10T13:32:05.339Z,17.91
2023-04-10T13:34:51.519Z,18.06
2023-04-10T13:37:37.580Z,18.03
2023-04-10T13:40:23.504Z,17.84
2023-04-10T13:43:10.744Z,17.84
2023-04-10T13:45:56.557Z,17.81
2023-04-10T13:48:42.505Z,17.75
2023-04-10T13:51:29.636Z,17.72
2023-04-10T13:54:17.013Z,17.66
2023-04-10T13:57:03.242Z,17.58
2023-04-10T13:59:50.408Z,17.40
2023-04-10T14:02:36.563Z,17.65
2023-04-10T14:05:22.791Z,17.53
2023-04-10T14:08:11.558Z,17.55
2023-04-10T14:10:57.377Z,17.46
2023-04-10T14:13:43.392Z,17.41
2023-04-10T14:16:30.975Z,17.44
2023-04-10T14:19:16.655Z,17.24
2023-04-10T14:22:02.441Z,17.31
2023-04-10T14:24:48.935Z,17.29
2023-04-10T14:27:35.799Z,17.16
2023-04-10T14:30:22.080Z,17.16
2023-04-10T14:33:09.299Z,17.27
2023-04-10T14:35:55.587Z,17.41
2023-04-10T14:38:41.829Z,17.46
2023-04-10T14:41:28.660Z,17.49
2023-04-10T14:44:14.516Z,17.55
2023-04-10T14:47:00.372Z,17.48
2023-04-10T14:49:47.500Z,17.49
2023-04-10T14:52:33.461Z,17.46
2023-04-10T14:55:19.577Z,17.35
2023-04-10T14:58:06.647Z,17.23
2023-04-10T15:00:52.789Z,17.20
2023-04-10T15:03:39.744Z,17.20
2023-04-10T15:06:28.170Z,17.24
2023-04-10T15:09:14.027Z,17.29
2023-04-10T15:12:00.167Z,17.31
2023-04-10T15:14:45.805Z,17.35
2023-04-10T15:17:31.594Z,17.36
2023-04-10T15:20:17.917Z,17.45
2023-04-10T15:23:05.116Z,17.49
2023-04-10T15:25:51.529Z,17.48
2023-04-10T15:28:37.406Z,17.53
2023-04-10T15:31:23.639Z,17.50
2023-04-10T15:34:10.161Z,17.54
2023-04-10T15:36:56.235Z,17.46
2023-04-10T15:39:43.171Z,17.25
2023-04-10T15:42:29.067Z,17.19
2023-04-10T15:45:14.888Z,17.17
2023-04-10T15:48:03.803Z,17.12
2023-04-10T15:50:50.023Z,17.10
2023-04-10T15:53:35.871Z,16.95
2023-04-10T15:56:22.945Z,16.90
2023-04-10T15:59:09.036Z,16.85
2023-04-10T16:01:54.850Z,16.78
2023-04-10T16:04:41.309Z,16.67
2023-04-10T16:07:27.462Z,16.49
2023-04-10T16:10:13.180Z,16.41
2023-04-10T16:13:04.125Z,16.39
2023-04-10T16:15:50.457Z,16.28
2023-04-10T16:18:36.732Z,16.29
2023-04-10T16:21:22.505Z,16.26
2023-04-10T16:24:09.094Z,16.23
2023-04-10T16:26:55.105Z,16.23
2023-04-10T16:29:42.290Z,16.16
2023-04-10T16:32:30.339Z,16.16
2023-04-10T16:35:18.899Z,16.07
2023-04-10T16:38:05.227Z,16.09
2023-04-10T16:40:51.426Z,16.00
2023-04-10T16:43:37.554Z,15.93
2023-04-10T16:46:24.780Z,15.95
2023-04-10T16:49:10.563Z,15.90
2023-04-10T16:51:56.494Z,15.90
2023-04-10T16:54:42.264Z,15.83
2023-04-10T16:57:28.053Z,15.81
2023-04-10T17:00:14.306Z,15.81
2023-04-10T17:03:01.555Z,15.71
2023-04-10T17:05:47.513Z,15.66
2023-04-10T17:08:33.534Z,15.70
2023-04-10T17:11:19.592Z,15.59
2023-04-10T17:14:06.552Z,15.62
2023-04-10T17:16:52.667Z,15.54
2023-04-10T17:19:40.473Z,15.54
2023-04-10T17:22:26.638Z,15.49
2023-04-10T17:25:12.626Z,15.44
2023-04-10T17:27:58.464Z,15.40
2023-04-10T17:30:44.338Z,15.35
2023-04-10T17:33:30.292Z,15.28
2023-04-10T17:36:17.614Z,15.29
2023-04-10T17:39:03.926Z,15.21
2023-04-10T17:41:49.930Z,15.20
2023-04-10T17:44:35.952Z,15.15
2023-04-10T17:47:21.717Z,15.05
2023-04-10T17:50:08.052Z,14.96
2023-04-10T17:52:55.505Z,14.89
2023-04-10T17:55:41.435Z,14.89
2023-04-10T17:58:27.410Z,14.86
2023-04-10T18:01:13.741Z,14.78
2023-04-10T18:04:00.138Z,14.68
2023-04-10T18:06:46.506Z,14.62
2023-04-10T18:09:33.527Z,14.59
2023-04-10T18:12:19.462Z,14.54
2023-04-10T18:15:06.255Z,14.44
2023-04-10T18:17:52.752Z,14.42
2023-04-10T18:20:38.421Z,14.43
2023-04-10T18:23:26.745Z,14.41
2023-04-10T18:26:14.246Z,14.38
2023-04-10T18:29:01.189Z,14.33
2023-04-10T18:31:47.248Z,14.28
2023-04-10T18:34:33.096Z,14.29
2023-04-10T18:37:18.841Z,14.28
2023-04-10T18:40:15.526Z,14.24
2023-04-10T18:43:04.058Z,14.22
2023-04-10T18:45:49.899Z,14.17
2023-04-10T18:48:38.305Z,14.15
2023-04-10T18:51:24.330Z,14.11
2023-04-10T18:54:10.712Z,14.09
2023-04-10T18:56:57.366Z,14.14
2023-04-10T18:59:44.722Z,14.16
2023-04-10T19:02:30.640Z,14.19
2023-04-10T19:05:16.676Z,14.20
2023-04-10T19:08:04.808Z,14.21
2023-04-10T19:10:50.905Z,14.28
2023-04-10T19:13:36.703Z,14.28
2023-04-10T19:16:23.901Z,14.27
2023-04-10T19:19:09.642Z,14.31
2023-04-10T19:21:55.728Z,14.32
2023-04-10T19:24:41.520Z,14.33
2023-04-10T19:27:28.150Z,14.32
2023-04-10T19:30:14.625Z,14.27
2023-04-10T19:33:01.857Z,14.25
2023-04-10T19:35:48.198Z,14.23
2023-04-10T19:38:34.960Z,14.22
2023-04-10T19:41:20.921Z,14.20
2023-04-10T19:44:07.002Z,14.18
2023-04-10T19:46:52.728Z,14.13
2023-04-10T19:49:40.434Z,14.15
2023-04-10T19:52:26.693Z,14.16
2023-04-10T19:55:12.545Z,14.12
2023-04-10T19:57:58.600Z,14.10
2023-04-10T20:00:44.506Z,14.10
2023-04-10T20:03:31.396Z,14.07
2023-04-10T20:06:18.832Z,14.03
2023-04-10T20:09:04.976Z,14.00
2023-04-10T20:11:50.990Z,13.96
2023-04-10T20:14:38.307Z,13.94
2023-04-10T20:17:29.935Z,13.89
2023-04-10T20:20:20.771Z,13.90
2023-04-10T20:23:13.910Z,13.86
2023-04-10T20:26:02.606Z,13.84
2023-04-10T20:28:48.919Z,13.79
2023-04-10T20:31:34.941Z,13.78
2023-04-10T20:34:21.252Z,13.75
2023-04-10T20:37:09.246Z,13.75
2023-04-10T20:39:59.494Z,13.75
2023-04-10T20:42:48.019Z,13.82
2023-04-10T20:45:36.699Z,13.82
2023-04-10T20:48:26.106Z,13.85
2023-04-10T20:51:14.934Z,13.82
2023-04-10T20:54:02.440Z,13.82
2023-04-10T20:56:51.831Z,13.76
2023-04-10T20:59:38.112Z,13.74
2023-04-10T21:02:26.275Z,13.68
2023-04-10T21:05:12.980Z,13.65
2023-04-10T21:07:59.335Z,13.57
2023-04-10T21:10:48.778Z,13.66
2023-04-10T21:13:39.603Z,13.70
2023-04-10T21:16:26.164Z,13.68
2023-04-10T21:19:11.898Z,13.62
2023-04-10T21:21:58.522Z,13.42
2023-04-10T21:24:44.522Z,13.22
2023-04-10T21:27:30.838Z,13.09
2023-04-10T21:30:18.468Z,12.91
2023-04-10T21:33:04.549Z,12.77
2023-04-10T21:35:50.504Z,12.55
2023-04-10T21:38:36.674Z,12.56
2023-04-10T21:41:22.496Z,12.39
2023-04-10T21:44:08.923Z,12.34
2023-04-10T21:46:55.898Z,12.18
2023-04-10T21:49:41.941Z,12.06
2023-04-10T21:52:27.984Z,11.88
2023-04-10T21:55:15.234Z,11.77
2023-04-10T21:58:01.133Z,11.62
2023-04-10T22:00:47.385Z,11.51
2023-04-10T22:03:34.862Z,11.39
2023-04-10T22:06:21.335Z,11.20
2023-04-10T22:09:07.136Z,11.14
2023-04-10T22:11:52.888Z,11.03
2023-04-10T22:14:38.970Z,10.96
2023-04-10T22:17:24.743Z,10.84
2023-04-10T22:20:12.335Z,10.78
2023-04-10T22:22:58.285Z,10.75
2023-04-10T22:25:43.986Z,10.69
2023-04-10T22:28:29.758Z,10.69
2023-04-10T22:31:16.312Z,10.62
2023-04-10T22:34:02.448Z,10.62
2023-04-10T22:36:51.947Z,10.58
2023-04-10T22:39:38.511Z,10.53
2023-04-10T22:42:24.732Z,10.44
2023-04-10T22:45:10.966Z,10.43
2023-04-10T22:47:57.058Z,10.42
2023-04-10T22:50:43.449Z,10.40
2023-04-10T22:53:30.504Z,10.36
2023-04-10T22:56:16.318Z,10.36
2023-04-10T22:59:02.052Z,10.32
2023-04-10T23:01:47.887Z,10.31
2023-04-10T23:04:34.211Z,10.27
2023-04-10T23:07:19.952Z,10.23
2023-04-10T23:10:08.158Z,10.19
2023-04-10T23:12:54.010Z,10.16
2023-04-10T23:15:39.786Z,10.11
2023-04-10T23:18:26.035Z,10.12
2023-04-10T23:21:11.780Z,10.08
2023-04-10T23:23:57.725Z,10.06
2023-04-10T23:26:44.866Z,10.04
2023-04-10T23:29:30.780Z,9.98
2023-04-10T23:32:17.223Z,9.99
2023-04-10T23:35:03.069Z,9.95
2023-04-10T23:37:50.469Z,9.91
2023-04-10T23:40:36.648Z,9.85
2023-04-10T23:43:23.792Z,9.85
2023-04-10T23:46:09.501Z,9.86
2023-04-10T23:48:56.583Z,9.80
2023-04-10T23:51:42.460Z,9.76
2023-04-10T23:54:28.206Z,9.73
2023-04-10T23:57:14.061Z,9.64
